METAR Data
IDs: Format: Raw Decoded Include TAF

Data at: 1609 UTC 21 Sep 2018

KFAR 211553Z 32015KT 10SM CLR 12/06 A3019 RMK AO2 PK WND 32027/1516 SLP229 T01170056
KFAR 211453Z 33017G23KT 10SM CLR 10/06 A3017 RMK AO2 PK WND 32029/1405 SLP221 T01000061 51029
KFAR 211353Z 32015G24KT 10SM FEW024 08/06 A3013 RMK AO2 SLP208 T00830056
KFAR 211348Z 32015G24KT 10SM SCT024 08/06 A3013 RMK AO2
KFAR 211253Z 33017G25KT 10SM BKN022 OVC060 07/05 A3008 RMK AO2 SLP191 T00670050
KFAR 211153Z 33016G23KT 10SM OVC017 07/05 A3003 RMK AO2 SLP176 60001 70164 T00670050 10072 20061 51050
KFAR 211120Z 34018G24KT 10SM OVC016 07/05 A3001 RMK AO2 T00670050
KFAR 211053Z 33017G27KT 10SM OVC014 07/05 A2999 RMK AO2 PK WND 33028/1037 PRESRR SLP160 T00670050
KFAR 211037Z 34020G28KT 10SM OVC015 07/05 A2997 RMK AO2 PK WND 33028/1037 T00670050
KFAR 210953Z 34020G26KT 10SM OVC013 07/06 A2993 RMK AO2 PK WND 34027/0855 RAE06 SLP141 P0000 T00670056
KFAR 210853Z 34018KT 10SM -RA BKN012 OVC017 07/06 A2988 RMK AO2 PK WND 34029/0843 RAB0756 SLP124 P0000 60001 T00670056 53037
KFAR 210753Z 34017G29KT 10SM OVC013 07/06 A2984 RMK AO2 PK WND 35033/0702 RAE47 SLP110 P0000 T00670061
KFAR 210731Z 35023G32KT 9SM -RA OVC012 07/06 A2983 RMK AO2 PK WND 35033/0702 P0000 T00670056
KFAR 210653Z 34022G36KT 4SM -RA BR OVC007 07/07 A2981 RMK AO2 PK WND 35036/0648 CIG 005V013 SLP098 P0001 T00720067
KFAR 210553Z 35022G31KT 3SM -RA BR OVC006 08/07 A2977 RMK AO2 PK WND 35035/0516 SLP086 P0000 60014 T00780072 10122 20078 401330078 53020
KFAR 210453Z 35023G33KT 4SM -RA BR OVC006 08/08 A2974 RMK AO2 PK WND 35034/0404 SLP076 P0000 T00830078
KFAR 210353Z 34020G32KT 5SM -RA BR OVC007 10/09 A2972 RMK AO2 PK WND 34032/0347 SLP067 P0001 T01000094
KFAR 210316Z 35018KT 3SM -RA BR OVC006 11/11 A2970 RMK AO2 P0000 T01110106
KFAR 210306Z 35017G25KT 2 1/2SM -RA BR OVC006 11/11 A2971 RMK AO2 P0000 T01110106
KFAR 210253Z 34017KT 4SM -RA BR OVC006 11/11 A2971 RMK AO2 RAE21B48 SLP064 P0001 60013 T01110111 53014
KFAR 210153Z 35013KT 6SM -RA BR BKN005 BKN012 OVC018 12/12 A2969 RMK AO2 SLP059 P0007 T01170117
KFAR 210143Z 34015KT 4SM -RA BR SCT005 BKN009 OVC014 12/12 A2970 RMK AO2 P0007 T01170117
KFAR 210136Z 34014G23KT 2 1/2SM RA BR SCT005 BKN009 OVC014 12/12 A2970 RMK AO2 P0006 T01170117
KFAR 210129Z 34015KT 3SM +RA BR SCT005 BKN009 OVC014 12/12 A2969 RMK AO2 P0004 T01170117
KFAR 210115Z 34014KT 5SM -RA BR SCT005 SCT010 OVC013 12/12 A2968 RMK AO2 P0002 T01170117
KFAR 210053Z 35012KT 10SM -RA OVC013 12/12 A2968 RMK AO2 SLP053 P0005 T01220117
KFAR 210035Z 36009KT 9SM -RA FEW007 OVC014 12/12 A2967 RMK AO2 P0005 T01220117
KFAR 210011Z 35006KT 6SM -RA BR OVC014 12/12 A2967 RMK AO2 P0002 T01220122
KFAR 210005Z 01008KT 6SM -RA BR OVC016 12/12 A2967 RMK AO2 P0001 T01220117
KFAR 202353Z 03010KT 6SM -RA BR FEW009 BKN014 OVC020 12/12 A2967 RMK AO2 SLP050 P0015 60113 T01220117 10128 20117 56023
KFAR 202344Z 02008KT 5SM RA BR BKN014 OVC020 12/12 A2966 RMK AO2 P0014 T01220122
KFAR 202319Z 04009KT 4SM RA BR SCT009 OVC016 13/12 A2967 RMK AO2 P0009 T01280122
KFAR 202308Z 05009KT 3SM RA BR BKN009 OVC016 13/12 A2968 RMK AO2 P0005 T01280122
KFAR 202300Z 03008KT 3SM RA BR SCT009 OVC016 13/12 A2968 RMK AO2 P0003 T01280122
KFAR 202253Z 03006KT 2 1/2SM RA BR BKN009 OVC014 13/12 A2968 RMK AO2 SLP055 P0024 T01280122
KFAR 202247Z 02006KT 2 1/2SM RA BR BKN009 OVC014 13/12 A2968 RMK AO2 P0022
KFAR 202244Z 03006KT 3SM RA BR OVC011 13/12 A2968 RMK AO2 P0021 T01280122
KFAR 202241Z 02007KT 2 1/2SM RA BR BKN009 OVC015 13/12 A2968 RMK AO2 P0020 T01280122
KFAR 202220Z 02008KT 3SM RA BR BKN008 OVC015 13/12 A2970 RMK AO2 P0014 T01280122
KFAR 202211Z 02008KT 2 1/2SM +RA BR BKN008 OVC012 13/12 A2970 RMK AO2 P0011 T01280122
KFAR 202153Z 04005KT 1 3/4SM +RA BR BKN008 OVC017 13/13 A2971 RMK AO2 SLP064 P0033 T01280128
KFAR 202141Z 05009G20KT 3SM RA BR BKN008 BKN018 OVC034 13/12 A2972 RMK AO2 P0026 T01280122
KFAR 202115Z 04014KT 2SM +RA BR SCT008 BKN016 OVC040 13/12 A2971 RMK AO2 P0014 T01280122
KFAR 202053Z 04015G22KT 2 1/2SM RA BR BKN008 OVC013 13/12 A2973 RMK AO2 SLP073 P0011 60041 T01280122 55024
KFAR 202051Z 03013KT 2 1/2SM RA BR BKN008 OVC013 13/12 A2973 RMK AO2 P0010
KFAR 201953Z 04014KT 5SM -RA BR BKN007 OVC015 13/12 A2977 RMK AO2 SLP083 P0005 T01280122
KFAR 201853Z 03013KT 5SM RA BR BKN005 OVC016 12/12 A2981 RMK AO2 PRESFR SLP097 P0025 T01220117
KFAR 201827Z 03013KT 2 1/2SM RA BR BKN006 OVC015 12/12 A2984 RMK AO2 P0017 T01220117
KFAR 201816Z 02010KT 2SM +RA BR SCT006 OVC015 12/12 A2984 RMK AO2 P0012 T01220117
KFAR 201803Z 03010KT 3SM RA BR FEW006 OVC017 12/12 A2985 RMK AO2 P0005 T01220117
KFAR 201753Z 03011KT 2 1/2SM +RA BR OVC017 12/12 A2986 RMK AO2 SLP115 P0026 60036 T01220117 10133 20089 58013
KFAR 201729Z 03008KT 3SM RA BR OVC017 12/12 A2987 RMK AO2 P0018 T01220117
KFAR 201709Z 04008KT 1 3/4SM +RA BR OVC019 12/12 A2987 RMK AO2 P0005 T01220117
KFAR 201706Z 04008KT 3SM +RA BR OVC019 12/12 A2988 RMK AO2 P0003 T01220117
KFAR 201653Z 06008KT 2 1/2SM RA BR OVC020 13/11 A2988 RMK AO2 RAB31 SLP121 P0010 T01280111
KFAR 201651Z 06010KT 2SM RA BR OVC020 13/11 A2988 RMK AO2 RAB31 P0010
KFAR 201615Z 05012KT 10SM BKN029 OVC043 13/10 A2989 RMK AO2 T01330100
KFAR 201553Z 05012KT 10SM OVC041 13/10 A2990 RMK AO2 SLP127 T01280100
KFAR 201453Z 03010KT 10SM OVC060 12/09 A2994 RMK AO2 SLP143 T01170094 56028
KFAR 201353Z 04009KT 10SM CLR 10/09 A2996 RMK AO2 SLP148 T01000089
KFAR 201253Z 02009KT 10SM CLR 09/08 A2997 RMK AO2 SLP153 T00940083
KFAR 201153Z 03005KT 10SM CLR 09/07 A3003 RMK AO2 SLP172 T00890072 10100 20083 55009
KFAR 201053Z AUTO 02008KT 10SM CLR 09/07 A3003 RMK AO2 SLP170 T00890072
KFAR 200953Z AUTO 02007KT 10SM CLR 09/08 A3005 RMK AO2 SLP179 T00940078
KFAR 200853Z AUTO 01006KT 10SM CLR 09/08 A3006 RMK AO2 SLP181 T00940078 55008
KFAR 200753Z AUTO 04007KT 10SM CLR 09/08 A3006 RMK AO2 SLP182 T00940078
KFAR 200653Z AUTO 04009KT 10SM CLR 09/07 A3005 RMK AO2 SLP179 T00940072
KFAR 200553Z AUTO 04009KT 10SM CLR 10/07 A3008 RMK AO2 SLP191 T01000067 10183 20100 401890078 55002
KFAR 200453Z 02011KT 10SM CLR 11/06 A3008 RMK AO2 SLP190 T01110056